createdAt,value
2019-04-07T00:01:52.981Z,24.40
2019-04-07T00:04:22.833Z,24.17
2019-04-07T00:06:53.287Z,22.77
2019-04-07T00:09:24.134Z,25.23
2019-04-07T00:11:54.011Z,25.13
2019-04-07T00:14:24.829Z,25.90
2019-04-07T00:16:55.869Z,24.07
2019-04-07T00:19:25.711Z,25.50
2019-04-07T00:21:55.757Z,24.03
2019-04-07T00:24:25.686Z,25.57
2019-04-07T00:26:55.674Z,27.63
2019-04-07T00:29:25.521Z,25.47
2019-04-07T00:31:55.752Z,26.43
2019-04-07T00:34:25.974Z,25.17
2019-04-07T00:36:58.825Z,25.17
2019-04-07T00:39:28.837Z,24.43
2019-04-07T00:41:59.175Z,24.27
2019-04-07T00:44:29.139Z,25.70
2019-04-07T00:46:59.782Z,24.23
2019-04-07T00:49:29.736Z,24.80
2019-04-07T00:52:01.620Z,23.70
2019-04-07T00:54:31.537Z,23.80
2019-04-07T00:57:01.924Z,24.30
2019-04-07T00:59:32.006Z,25.77
2019-04-07T01:02:02.519Z,23.10
2019-04-07T01:04:32.508Z,22.87
2019-04-07T01:07:02.705Z,24.17
2019-04-07T01:09:32.672Z,23.33
2019-04-07T01:12:02.905Z,23.67
2019-04-07T01:14:33.553Z,22.60
2019-04-07T01:17:03.701Z,21.93
2019-04-07T01:19:33.510Z,22.20
2019-04-07T01:22:03.909Z,22.33
2019-04-07T01:24:34.126Z,21.17
2019-04-07T01:27:04.019Z,22.27
2019-04-07T01:29:34.170Z,23.43
2019-04-07T01:32:04.105Z,22.63
2019-04-07T01:34:34.059Z,22.07
2019-04-07T01:37:04.458Z,21.13
2019-04-07T01:39:34.928Z,21.97
2019-04-07T01:42:16.932Z,23.20
2019-04-07T01:45:06.120Z,22.43
2019-04-07T01:47:45.199Z,22.83
2019-04-07T01:50:27.496Z,21.27
2019-04-07T01:53:16.393Z,22.20
2019-04-07T01:55:57.583Z,22.37
2019-04-07T01:58:49.382Z,21.80
2019-04-07T02:01:36.331Z,21.97
2019-04-07T02:04:23.680Z,21.77
2019-04-07T02:07:24.709Z,22.40
2019-04-07T02:10:13.684Z,22.13
2019-04-07T02:13:05.952Z,21.50
2019-04-07T02:15:54.932Z,22.40
2019-04-07T02:18:44.280Z,23.27
2019-04-07T02:21:22.248Z,21.90
2019-04-07T02:24:10.240Z,22.10
2019-04-07T02:26:45.525Z,22.53
2019-04-07T02:29:40.149Z,21.77
2019-04-07T02:32:27.862Z,22.10
2019-04-07T02:35:34.875Z,20.80
2019-04-07T02:38:11.197Z,21.70
2019-04-07T02:41:04.085Z,22.23
2019-04-07T02:43:48.771Z,21.23
2019-04-07T02:46:44.109Z,21.23
2019-04-07T02:49:33.893Z,20.53
2019-04-07T02:52:25.725Z,21.47
2019-04-07T02:55:17.369Z,20.63
2019-04-07T02:58:06.177Z,21.73
2019-04-07T03:00:44.537Z,20.57
2019-04-07T03:03:36.863Z,19.40
2019-04-07T03:06:32.502Z,19.20
2019-04-07T03:09:07.524Z,19.37
2019-04-07T03:11:52.560Z,19.23
2019-04-07T03:14:31.753Z,19.03
2019-04-07T03:17:12.556Z,20.37
2019-04-07T03:20:10.430Z,18.70
2019-04-07T03:22:58.767Z,19.37
2019-04-07T03:25:56.843Z,19.33
2019-04-07T03:28:54.592Z,19.07
2019-04-07T03:31:41.156Z,19.03
2019-04-07T03:34:33.409Z,18.10
2019-04-07T03:37:42.229Z,19.13
2019-04-07T03:40:22.201Z,19.10
2019-04-07T03:43:23.864Z,20.40
2019-04-07T03:46:10.644Z,19.53
2019-04-07T03:48:45.915Z,19.27
2019-04-07T03:51:34.804Z,18.67
2019-04-07T03:54:22.793Z,18.77
2019-04-07T03:57:17.814Z,18.60
2019-04-07T04:00:09.628Z,19.67
2019-04-07T04:02:59.611Z,18.10
2019-04-07T04:05:47.706Z,19.30
2019-04-07T04:08:24.490Z,18.13
2019-04-07T04:11:28.659Z,18.43
2019-04-07T04:14:07.992Z,18.47
2019-04-07T04:16:44.558Z,18.53
2019-04-07T04:19:14.748Z,18.53
2019-04-07T04:21:44.889Z,18.07
2019-04-07T04:24:15.430Z,17.37
2019-04-07T04:26:47.536Z,17.53
2019-04-07T04:29:17.483Z,16.73
2019-04-07T04:31:47.496Z,17.20
2019-04-07T04:34:17.383Z,17.97
2019-04-07T04:36:47.992Z,18.13
2019-04-07T04:39:19.636Z,17.97
2019-04-07T04:41:49.289Z,18.40
2019-04-07T04:44:24.109Z,17.37
2019-04-07T04:46:53.779Z,16.37
2019-04-07T04:49:23.545Z,17.57
2019-04-07T04:51:54.230Z,16.97
2019-04-07T04:54:24.608Z,16.87
2019-04-07T04:56:54.416Z,16.63
2019-04-07T04:59:24.311Z,16.90
2019-04-07T05:01:54.171Z,16.03
2019-04-07T05:04:24.186Z,16.40
2019-04-07T05:06:54.073Z,16.10
2019-04-07T05:09:24.462Z,17.17
2019-04-07T05:11:54.410Z,16.60
2019-04-07T05:14:24.255Z,17.87
2019-04-07T05:16:54.762Z,16.17
2019-04-07T05:19:24.742Z,17.07
2019-04-07T05:21:55.888Z,17.47
2019-04-07T05:24:25.860Z,16.83
2019-04-07T05:26:55.795Z,17.77
2019-04-07T05:29:26.642Z,17.43
2019-04-07T05:31:56.643Z,17.43
2019-04-07T05:34:26.750Z,17.90
2019-04-07T05:36:56.560Z,18.30
2019-04-07T05:39:26.400Z,16.83
2019-04-07T05:41:56.258Z,17.40
2019-04-07T05:44:26.638Z,17.03
2019-04-07T05:46:56.981Z,16.83
2019-04-07T05:49:27.097Z,17.60
2019-04-07T05:52:04.137Z,16.37
2019-04-07T05:54:31.681Z,15.90
2019-04-07T05:57:02.394Z,17.23
2019-04-07T05:59:32.836Z,16.57
2019-04-07T06:02:03.757Z,15.90
2019-04-07T06:04:36.539Z,15.63
2019-04-07T06:07:07.023Z,15.70
2019-04-07T06:09:38.170Z,16.10
2019-04-07T06:12:09.717Z,15.53
2019-04-07T06:14:40.981Z,16.20
2019-04-07T06:17:12.015Z,16.87
2019-04-07T06:19:42.292Z,16.60
2019-04-07T06:22:12.303Z,16.30
2019-04-07T06:24:42.146Z,15.77
2019-04-07T06:27:13.815Z,14.37
2019-04-07T06:29:43.655Z,13.67
2019-04-07T06:32:14.317Z,14.43
2019-04-07T06:34:44.479Z,13.97
2019-04-07T06:37:14.522Z,14.40
2019-04-07T06:39:45.235Z,13.03
2019-04-07T06:42:16.004Z,13.30
2019-04-07T06:44:45.843Z,12.57
2019-04-07T06:47:24.057Z,13.63
2019-04-07T06:50:18.990Z,13.80
2019-04-07T06:53:17.554Z,13.07
2019-04-07T06:56:07.278Z,13.57
2019-04-07T06:59:11.894Z,13.77
2019-04-07T07:01:59.457Z,14.17
2019-04-07T07:04:45.281Z,11.80
2019-04-07T07:07:31.406Z,12.37
2019-04-07T07:10:26.794Z,12.07
2019-04-07T07:13:25.641Z,11.37
2019-04-07T07:16:07.979Z,11.47
2019-04-07T07:18:54.761Z,11.37
2019-04-07T07:21:42.514Z,11.43
2019-04-07T07:24:15.712Z,11.20
2019-04-07T07:26:46.265Z,10.43
2019-04-07T07:29:17.212Z,10.80
2019-04-07T07:31:48.889Z,10.80
2019-04-07T07:34:19.563Z,11.10
2019-04-07T07:36:52.263Z,10.63
2019-04-07T07:39:22.970Z,10.27
2019-04-07T07:41:53.044Z,10.70
2019-04-07T07:44:23.484Z,10.17
2019-04-07T07:46:53.780Z,10.53
2019-04-07T07:49:23.716Z,9.50
2019-04-07T07:51:53.569Z,9.60
2019-04-07T07:54:23.409Z,8.17
2019-04-07T07:56:55.925Z,8.20
2019-04-07T07:59:30.698Z,7.50
2019-04-07T08:01:58.767Z,8.10
2019-04-07T08:04:29.154Z,8.10
2019-04-07T08:06:59.232Z,7.83
2019-04-07T08:09:29.399Z,8.00
2019-04-07T08:12:01.626Z,9.07
2019-04-07T08:14:31.513Z,9.13
2019-04-07T08:17:03.366Z,7.97
2019-04-07T08:19:33.033Z,7.90
2019-04-07T08:22:03.083Z,8.50
2019-04-07T08:24:33.000Z,8.30
2019-04-07T08:27:02.920Z,8.07
2019-04-07T08:29:33.434Z,8.00
2019-04-07T08:32:04.390Z,7.70
2019-04-07T08:34:34.870Z,8.73
2019-04-07T08:37:04.834Z,8.07
2019-04-07T08:39:35.433Z,7.37
2019-04-07T08:42:09.833Z,8.37
2019-04-07T08:44:38.018Z,8.40
2019-04-07T08:47:11.438Z,8.33
2019-04-07T08:49:40.368Z,8.47
2019-04-07T08:52:12.325Z,7.87
2019-04-07T08:54:42.167Z,6.87
2019-04-07T08:57:13.047Z,8.07
2019-04-07T08:59:43.134Z,7.27
2019-04-07T09:02:13.662Z,7.20
2019-04-07T09:04:46.604Z,7.30
2019-04-07T09:07:15.455Z,7.33
2019-04-07T09:09:47.832Z,6.97
2019-04-07T09:12:17.491Z,6.83
2019-04-07T09:14:47.403Z,7.57
2019-04-07T09:17:45.794Z,6.90
2019-04-07T09:20:36.160Z,7.20
2019-04-07T09:23:14.690Z,7.43
2019-04-07T09:26:09.501Z,6.43
2019-04-07T09:28:45.556Z,6.87
2019-04-07T09:31:52.970Z,6.47
2019-04-07T09:34:53.072Z,6.20
2019-04-07T09:37:29.065Z,6.37
2019-04-07T09:40:05.768Z,6.53
2019-04-07T09:42:50.786Z,6.50
2019-04-07T09:45:43.625Z,6.47
2019-04-07T09:48:26.787Z,6.77
2019-04-07T09:51:07.103Z,7.10
2019-04-07T09:54:01.509Z,6.10
2019-04-07T09:56:57.235Z,5.73
2019-04-07T09:59:48.588Z,5.60
2019-04-07T10:02:37.258Z,4.30
2019-04-07T10:05:44.848Z,4.60
2019-04-07T10:08:37.383Z,4.87
2019-04-07T10:11:29.566Z,4.20
2019-04-07T10:14:18.466Z,3.33
2019-04-07T10:17:05.535Z,3.17
2019-04-07T10:19:53.984Z,2.83
2019-04-07T10:22:34.069Z,3.03
2019-04-07T10:25:15.515Z,3.00
2019-04-07T10:28:10.578Z,2.80
2019-04-07T10:30:50.795Z,2.63
2019-04-07T10:33:42.725Z,3.00
2019-04-07T10:36:27.049Z,3.00
2019-04-07T10:39:20.907Z,2.90
2019-04-07T10:42:08.783Z,2.50
2019-04-07T10:44:58.329Z,3.50
2019-04-07T10:47:56.719Z,3.57
2019-04-07T10:50:43.777Z,3.00
2019-04-07T10:53:23.364Z,2.80
2019-04-07T10:55:59.882Z,2.67
2019-04-07T10:58:41.486Z,2.73
2019-04-07T11:01:21.109Z,2.57
2019-04-07T11:04:07.577Z,2.90
2019-04-07T11:06:54.319Z,2.70
2019-04-07T11:09:49.528Z,2.90
2019-04-07T11:12:41.399Z,2.97
2019-04-07T11:15:28.263Z,2.90
2019-04-07T11:18:22.984Z,2.63
2019-04-07T11:21:09.522Z,2.77
2019-04-07T11:23:47.523Z,2.43
2019-04-07T11:26:42.862Z,2.70
2019-04-07T11:29:32.584Z,2.87
2019-04-07T11:32:19.936Z,2.47
2019-04-07T11:35:06.072Z,2.30
2019-04-07T11:37:55.944Z,2.20
2019-04-07T11:40:48.931Z,2.27
2019-04-07T11:43:48.991Z,2.30
2019-04-07T11:46:36.525Z,2.53
2019-04-07T11:49:34.559Z,2.33
2019-04-07T11:52:15.757Z,1.90
2019-04-07T11:55:08.570Z,1.67
2019-04-07T11:58:06.425Z,1.67
2019-04-07T12:00:59.587Z,1.50
2019-04-07T12:03:59.833Z,1.80
2019-04-07T12:06:51.632Z,1.60
2019-04-07T12:09:39.624Z,1.73
2019-04-07T12:12:31.417Z,2.00
2019-04-07T12:15:09.969Z,2.20
2019-04-07T12:17:53.406Z,2.17
2019-04-07T12:20:35.300Z,2.00
2019-04-07T12:23:27.826Z,2.07
2019-04-07T12:26:34.681Z,1.80
2019-04-07T12:29:37.298Z,2.00
2019-04-07T12:32:30.323Z,2.00
2019-04-07T12:35:08.296Z,1.90
2019-04-07T12:38:01.979Z,1.73
2019-04-07T12:40:52.917Z,1.80
2019-04-07T12:43:40.395Z,1.80
2019-04-07T12:46:41.827Z,2.20
2019-04-07T12:49:23.157Z,1.80
2019-04-07T12:52:12.736Z,1.97
2019-04-07T12:55:02.374Z,2.30
2019-04-07T12:57:42.542Z,2.00
2019-04-07T13:00:57.860Z,2.10
2019-04-07T13:03:40.806Z,2.10
2019-04-07T13:06:22.227Z,1.83
2019-04-07T13:09:20.403Z,1.93
2019-04-07T13:12:24.617Z,2.13
2019-04-07T13:15:17.053Z,1.70
2019-04-07T13:18:07.728Z,1.90
2019-04-07T13:21:05.582Z,1.77
2019-04-07T13:23:51.454Z,2.03
2019-04-07T13:26:37.619Z,1.80
2019-04-07T13:29:23.744Z,1.90
2019-04-07T13:32:18.765Z,2.10
2019-04-07T13:35:06.303Z,2.00
2019-04-07T13:38:04.469Z,1.90
2019-04-07T13:40:46.904Z,1.80
2019-04-07T13:43:42.277Z,2.00
2019-04-07T13:46:27.834Z,1.73
2019-04-07T13:49:27.895Z,1.93
2019-04-07T13:52:19.293Z,1.90
2019-04-07T13:55:04.540Z,1.70
2019-04-07T13:57:59.534Z,1.83
2019-04-07T14:00:46.368Z,2.00
2019-04-07T14:03:37.138Z,2.00
2019-04-07T14:06:17.448Z,1.80
2019-04-07T14:09:06.695Z,2.07
2019-04-07T14:12:04.236Z,1.80
2019-04-07T14:14:42.610Z,1.70
2019-04-07T14:17:30.772Z,1.77
2019-04-07T14:20:20.419Z,2.00
2019-04-07T14:23:08.513Z,2.00
2019-04-07T14:25:52.607Z,2.00
2019-04-07T14:28:40.133Z,1.80
2019-04-07T14:31:44.456Z,2.07
2019-04-07T14:34:42.345Z,2.20
2019-04-07T14:37:18.701Z,1.93
2019-04-07T14:40:07.559Z,1.90
2019-04-07T14:42:57.123Z,1.90
2019-04-07T14:45:48.212Z,1.97
2019-04-07T14:48:37.505Z,1.90
2019-04-07T14:51:29.502Z,2.10
2019-04-07T14:54:28.178Z,2.00
2019-04-07T14:57:10.384Z,2.20
2019-04-07T15:00:00.002Z,2.17
2019-04-07T15:02:30.220Z,1.90
2019-04-07T15:05:05.014Z,1.97
2019-04-07T15:07:52.764Z,1.73
2019-04-07T15:10:36.138Z,1.93
2019-04-07T15:13:10.729Z,1.80
2019-04-07T15:15:41.696Z,2.50
2019-04-07T15:18:12.714Z,2.20
2019-04-07T15:20:43.163Z,2.23
2019-04-07T15:23:13.358Z,2.27
2019-04-07T15:25:45.999Z,2.23
2019-04-07T15:28:15.458Z,1.80
2019-04-07T15:30:47.939Z,1.90
2019-04-07T15:33:17.734Z,1.83
2019-04-07T15:35:49.434Z,2.13
2019-04-07T15:38:23.778Z,2.10
2019-04-07T15:40:51.986Z,2.00
2019-04-07T15:43:22.368Z,1.90
2019-04-07T15:45:52.426Z,1.70
2019-04-07T15:48:25.794Z,1.60
2019-04-07T15:50:54.144Z,1.90
2019-04-07T15:53:24.550Z,1.70
2019-04-07T15:56:02.239Z,1.70
2019-04-07T15:58:29.709Z,1.80
2019-04-07T16:01:00.223Z,2.00
2019-04-07T16:03:32.005Z,1.90
2019-04-07T16:06:01.862Z,1.80
2019-04-07T16:08:34.892Z,1.70
2019-04-07T16:11:05.065Z,1.90
2019-04-07T16:13:35.796Z,1.77
2019-04-07T16:16:05.869Z,2.20
2019-04-07T16:18:39.469Z,1.80
2019-04-07T16:21:10.935Z,1.70
2019-04-07T16:23:41.791Z,2.00
2019-04-07T16:26:11.905Z,2.00
2019-04-07T16:28:45.981Z,2.20
2019-04-07T16:31:13.577Z,1.87
2019-04-07T16:33:43.610Z,2.23
2019-04-07T16:36:13.646Z,1.87
2019-04-07T16:38:44.350Z,1.93
2019-04-07T16:41:15.040Z,2.10
2019-04-07T16:43:45.794Z,2.37
2019-04-07T16:46:20.369Z,1.90
2019-04-07T16:48:47.703Z,2.00
2019-04-07T16:51:17.906Z,2.40
2019-04-07T16:53:48.857Z,2.90
2019-04-07T16:56:20.675Z,3.80
2019-04-07T16:58:50.402Z,3.67
2019-04-07T17:01:20.304Z,3.67
2019-04-07T17:03:50.985Z,2.50
2019-04-07T17:06:20.973Z,2.20
2019-04-07T17:08:53.201Z,1.93
2019-04-07T17:11:23.673Z,2.40
2019-04-07T17:13:53.833Z,2.50
2019-04-07T17:16:25.034Z,2.60
2019-04-07T17:18:56.177Z,2.70
2019-04-07T17:21:27.643Z,2.47
2019-04-07T17:23:58.125Z,2.13
2019-04-07T17:26:28.298Z,2.80
2019-04-07T17:28:59.534Z,2.90
2019-04-07T17:31:32.069Z,2.53
2019-04-07T17:34:03.847Z,2.57
2019-04-07T17:36:33.325Z,2.50
2019-04-07T17:39:18.620Z,2.50
2019-04-07T17:41:50.409Z,2.20
2019-04-07T17:44:39.194Z,2.33
2019-04-07T17:47:46.015Z,2.13
2019-04-07T17:50:40.985Z,2.00
2019-04-07T17:53:32.745Z,2.13
2019-04-07T17:56:18.899Z,2.30
2019-04-07T17:59:08.741Z,2.10
2019-04-07T18:02:02.417Z,2.20
2019-04-07T18:04:50.066Z,1.93
2019-04-07T18:07:36.108Z,2.30
2019-04-07T18:10:23.795Z,2.50
2019-04-07T18:13:07.809Z,2.53
2019-04-07T18:16:00.000Z,2.50
2019-04-07T18:18:59.609Z,2.80
2019-04-07T18:21:51.932Z,2.70
2019-04-07T18:24:26.082Z,2.63
2019-04-07T18:27:15.818Z,2.67
2019-04-07T18:30:03.474Z,2.90
2019-04-07T18:32:51.887Z,3.13
2019-04-07T18:35:40.952Z,3.00
2019-04-07T18:38:42.792Z,3.33
2019-04-07T18:41:36.278Z,3.00
2019-04-07T18:44:20.455Z,2.87
2019-04-07T18:47:05.323Z,2.80
2019-04-07T18:49:52.569Z,2.93
2019-04-07T18:52:44.587Z,3.10
2019-04-07T18:55:37.143Z,2.60
2019-04-07T18:58:21.287Z,3.33
2019-04-07T19:01:16.912Z,3.40
2019-04-07T19:04:06.635Z,3.33
2019-04-07T19:06:58.291Z,3.20
2019-04-07T19:10:09.631Z,2.93
2019-04-07T19:13:05.030Z,3.20
2019-04-07T19:15:47.427Z,3.10
2019-04-07T19:18:36.586Z,2.90
2019-04-07T19:21:31.586Z,2.97
2019-04-07T19:24:34.380Z,2.80
2019-04-07T19:27:33.218Z,3.00
2019-04-07T19:30:31.277Z,2.70
2019-04-07T19:33:32.447Z,2.60
2019-04-07T19:36:16.701Z,3.00
2019-04-07T19:39:04.808Z,3.30
2019-04-07T19:41:45.205Z,3.63
2019-04-07T19:44:38.958Z,3.20
2019-04-07T19:47:18.281Z,3.00
2019-04-07T19:50:09.771Z,3.10
2019-04-07T19:53:10.497Z,3.30
2019-04-07T19:56:08.226Z,4.00
2019-04-07T19:59:01.988Z,3.77
2019-04-07T20:01:50.295Z,4.13
2019-04-07T20:04:35.979Z,3.77
2019-04-07T20:07:40.033Z,4.33
2019-04-07T20:10:24.537Z,4.43
2019-04-07T20:13:09.168Z,4.17
2019-04-07T20:15:57.497Z,4.57
2019-04-07T20:18:50.423Z,4.20
2019-04-07T20:21:40.845Z,4.10
2019-04-07T20:24:38.394Z,3.30
2019-04-07T20:27:28.563Z,3.60
2019-04-07T20:30:17.546Z,4.00
2019-04-07T20:32:56.771Z,3.30
2019-04-07T20:35:37.667Z,3.73
2019-04-07T20:38:33.419Z,3.20
2019-04-07T20:41:16.105Z,3.37
2019-04-07T20:44:07.642Z,3.67
2019-04-07T20:47:08.629Z,3.50
2019-04-07T20:49:56.828Z,3.83
2019-04-07T20:52:41.452Z,3.63
2019-04-07T20:55:47.680Z,3.70
2019-04-07T20:58:56.671Z,4.27
2019-04-07T21:01:46.789Z,3.90
2019-04-07T21:04:41.778Z,4.10
2019-04-07T21:07:29.848Z,3.33
2019-04-07T21:10:23.111Z,3.63
2019-04-07T21:13:19.276Z,3.10
2019-04-07T21:16:10.275Z,3.60
2019-04-07T21:19:14.367Z,3.87
2019-04-07T21:22:15.677Z,3.70
2019-04-07T21:25:05.769Z,3.47
2019-04-07T21:27:53.228Z,3.50
2019-04-07T21:30:36.700Z,3.60
2019-04-07T21:33:32.430Z,3.40
2019-04-07T21:36:28.147Z,3.70
2019-04-07T21:39:30.456Z,3.30
2019-04-07T21:42:22.003Z,3.23
2019-04-07T21:45:03.924Z,3.17
2019-04-07T21:47:44.795Z,3.57
2019-04-07T21:50:40.035Z,3.90
2019-04-07T21:53:32.079Z,3.50
2019-04-07T21:56:36.945Z,3.60
2019-04-07T21:59:33.753Z,3.63
2019-04-07T22:02:12.124Z,3.53
2019-04-07T22:05:01.772Z,3.63
2019-04-07T22:07:47.995Z,3.93
2019-04-07T22:10:20.516Z,3.93
2019-04-07T22:12:51.916Z,3.80
2019-04-07T22:15:22.654Z,3.80
2019-04-07T22:17:54.154Z,4.10
2019-04-07T22:20:25.058Z,3.73
2019-04-07T22:22:59.143Z,4.30
2019-04-07T22:25:32.612Z,4.87
2019-04-07T22:28:03.815Z,5.07
2019-04-07T22:30:40.124Z,4.37
2019-04-07T22:33:06.418Z,4.30
2019-04-07T22:35:41.344Z,4.70
2019-04-07T22:38:09.822Z,5.20
2019-04-07T22:40:39.806Z,4.90
2019-04-07T22:43:11.394Z,5.20
2019-04-07T22:45:53.170Z,5.00
2019-04-07T22:48:15.426Z,5.80
2019-04-07T22:50:49.998Z,5.20
2019-04-07T22:53:22.553Z,5.13
2019-04-07T22:55:52.710Z,5.77
2019-04-07T22:58:24.268Z,6.13
2019-04-07T23:00:54.452Z,5.57
2019-04-07T23:03:25.979Z,6.07
2019-04-07T23:05:57.516Z,6.27
2019-04-07T23:08:28.351Z,6.77
2019-04-07T23:10:58.375Z,7.07
2019-04-07T23:13:28.655Z,7.20
2019-04-07T23:16:09.015Z,8.13
2019-04-07T23:18:32.430Z,8.60
2019-04-07T23:21:03.107Z,8.73
2019-04-07T23:23:34.593Z,9.30
2019-04-07T23:26:05.482Z,10.70
2019-04-07T23:28:35.985Z,11.17
2019-04-07T23:31:07.505Z,10.70
2019-04-07T23:33:38.257Z,11.47
2019-04-07T23:36:08.201Z,12.13
2019-04-07T23:38:39.077Z,13.27
2019-04-07T23:41:09.626Z,14.50
2019-04-07T23:43:39.748Z,14.87
2019-04-07T23:46:20.675Z,15.97
2019-04-07T23:48:42.374Z,17.90
2019-04-07T23:51:12.896Z,17.20
2019-04-07T23:54:10.978Z,21.17
2019-04-07T23:56:43.630Z,20.67
2019-04-07T23:59:16.786Z,20.67
